Open Full Screen Window  High Contrast Mode
Wind Gusting 00 knots
06
December 21, 2014 2:04 PM CST
Weather Information
Wind Direction
  120 °
Wind Speed
  06 kt (7 mph)
Wind Gust
  00 kt (0 mph)
Altimeter
30.19 in
Visibility
10 SM
Temperature
03° C
37° F
Dewpoint
-02° C
28° F
Humidity
70%
Sky Condition
Clear
VFR

METAR KAXV 212004Z AUTO 12006KT 10SM CLR 03/M02 A3019 RMK AO2

*Background is not an actual portrayal of the airport.